Time;durP1;ratioP1;P1;durP2;ratioP2;P2;SDS_P1;SDS_P2;PMS_P1;PMS_P2;Temp;Humidity;BMP_temperature;BMP_pressure;BME280_temperature;BME280_humidity;BME280_pressure;Samples;Min_cycle;Max_cycle;Signal;HPM_P1;HPM_P2
2024/02/05 00:00:10;;;;;;;128.32;81.20;;;282.30;2278.40;;;;;;4838379;29;20029;-77
2024/02/05 00:02:37;;;;;;;64.25;39.55;;;282.40;2278.40;;;;;;4838559;29;20041;-72
2024/02/05 00:05:03;;;;;;;15.05;7.05;;;282.50;2227.20;;;;;;4837864;29;20018;-72
2024/02/05 00:07:28;;;;;;;78.18;43.88;;;307.20;2252.80;;;;;;4821931;29;20137;-71
2024/02/05 00:09:54;;;;;;;168.98;102.30;;;307.20;2278.40;;;;;;4838035;29;20107;-73
2024/02/05 00:12:20;;;;;;;52.22;30.85;;;282.50;2252.80;;;;;;4838373;29;20026;-73
2024/02/05 00:14:46;;;;;;;45.65;33.17;;;282.50;2278.40;;;;;;4838435;29;20057;-77
2024/02/05 00:17:11;;;;;;;49.30;28.40;;;282.50;2252.80;;;;;;4838143;29;20034;-73
2024/02/05 00:19:37;;;;;;;103.05;57.03;;;282.50;2278.40;;;;;;4838046;29;20468;-77
2024/02/05 00:22:03;;;;;;;189.50;118.28;;;282.30;2278.40;;;;;;4837842;29;20392;-73
2024/02/05 00:24:29;;;;;;;77.22;42.80;;;282.40;2278.40;;;;;;4838019;29;20099;-71
2024/02/05 00:26:55;;;;;;;79.32;49.70;;;307.30;2227.20;;;;;;4839276;29;20036;-74
2024/02/05 00:29:20;;;;;;;121.72;82.65;;;307.30;2201.60;;;;;;4841466;29;20556;-72
2024/02/05 00:31:47;;;;;;;46.22;28.80;;;307.60;2176.00;;;;;;4841681;29;20037;-72
2024/02/05 00:34:12;;;;;;;11.52;7.63;;;307.50;2201.60;;;;;;4847703;29;20030;-71
2024/02/05 00:36:39;;;;;;;27.77;16.50;;;307.60;2201.60;;;;;;4847251;29;20085;-72
2024/02/05 00:39:05;;;;;;;47.47;27.08;;;307.60;2176.00;;;;;;4841670;29;20021;-72
2024/02/05 00:41:31;;;;;;;46.38;26.83;;;307.70;2150.40;;;;;;4841306;29;20028;-72
2024/02/05 00:43:56;;;;;;;19.67;12.75;;;307.70;2176.00;;;;;;4841703;29;20042;-71
2024/02/05 00:46:23;;;;;;;72.80;42.42;;;307.60;2176.00;;;;;;4840875;29;20097;-74
2024/02/05 00:48:49;;;;;;;22.83;14.50;;;307.50;2201.60;;;;;;4841182;29;20071;-75
2024/02/05 00:51:15;;;;;;;28.58;19.30;;;307.50;2201.60;;;;;;4841294;29;20109;-74
2024/02/05 00:53:41;;;;;;;170.93;99.38;;;307.60;2176.00;;;;;;4841140;29;20065;-71
2024/02/05 00:56:07;;;;;;;51.88;29.70;;;307.50;2201.60;;;;;;4841120;29;20361;-72
2024/02/05 00:58:33;;;;;;;14.43;8.80;;;307.20;2252.80;;;;;;4841237;29;20026;-72
2024/02/05 01:00:58;;;;;;;22.35;11.90;;;307.20;2201.60;;;;;;4840760;29;20093;-72
2024/02/05 01:03:24;;;;;;;16.02;8.80;;;307.30;2201.60;;;;;;4840984;29;20400;-72
2024/02/05 01:05:50;;;;;;;41.97;24.52;;;307.40;2176.00;;;;;;4840614;29;20030;-73
2024/02/05 01:08:16;;;;;;;32.95;16.15;;;307.50;2176.00;;;;;;4840762;29;20040;-71
2024/02/05 01:10:42;;;;;;;26.95;18.17;;;307.60;2176.00;;;;;;4840699;29;20026;-72
2024/02/05 01:13:08;;;;;;;11.60;6.88;;;307.60;2124.80;;;;;;4840884;29;20033;-73
2024/02/05 01:15:34;;;;;;;47.97;29.52;;;307.60;2150.40;;;;;;4840924;29;20026;-72
2024/02/05 01:18:00;;;;;;;78.00;51.63;;;307.60;2176.00;;;;;;4840739;29;20033;-72
2024/02/05 01:20:26;;;;;;;74.35;48.80;;;307.50;2176.00;;;;;;4840668;29;20033;-72
2024/02/05 01:22:51;;;;;;;31.60;18.45;;;307.60;2150.40;;;;;;4847213;29;20037;-72
2024/02/05 01:25:17;;;;;;;27.27;17.05;;;307.60;2150.40;;;;;;4846452;29;20044;-72
2024/02/05 01:27:43;;;;;;;40.63;24.00;;;307.60;2176.00;;;;;;4840775;29;20101;-72
2024/02/05 01:30:09;;;;;;;22.67;15.15;;;307.30;2252.80;;;;;;4840593;29;20430;-73
2024/02/05 01:32:35;;;;;;;30.52;18.98;;;307.30;2252.80;;;;;;4840538;29;20034;-73
2024/02/05 01:35:01;;;;;;;16.95;11.65;;;307.30;2227.20;;;;;;4840427;29;20037;-74
2024/02/05 01:37:27;;;;;;;24.77;16.40;;;307.20;2278.40;;;;;;4827714;29;20086;-73
2024/02/05 01:39:53;;;;;;;36.80;21.95;;;282.50;2252.80;;;;;;4840394;29;20441;-78
2024/02/05 01:42:19;;;;;;;38.67;22.80;;;307.20;2227.20;;;;;;4840386;29;20034;-78
2024/02/05 01:44:44;;;;;;;84.38;47.45;;;307.30;2227.20;;;;;;4840226;29;20166;-73
2024/02/05 01:47:13;;;;;;;36.67;21.45;;;307.30;2201.60;;;;;;4828004;29;20074;-73
2024/02/05 01:49:40;;;;;;;39.20;22.45;;;282.50;2227.20;;;;;;4840426;29;20479;-71
2024/02/05 01:52:09;;;;;;;21.70;14.57;;;282.40;2227.20;;;;;;4840302;29;20166;-72
2024/02/05 01:54:37;;;;;;;23.30;15.43;;;282.40;2201.60;;;;;;4840027;29;20061;-72
2024/02/05 01:57:06;;;;;;;29.67;18.70;;;282.40;2227.20;;;;;;4840108;29;20041;-73
2024/02/05 01:59:32;;;;;;;11.70;8.43;;;282.30;2227.20;;;;;;4852496;29;20113;-71
2024/02/05 02:01:58;;;;;;;11.57;8.77;;;282.30;2201.60;;;;;;4840100;29;20473;-74
2024/02/05 02:04:24;;;;;;;8.90;6.78;;;282.40;2201.60;;;;;;4839759;29;20369;-73
2024/02/05 02:06:51;;;;;;;7.93;5.68;;;282.50;2176.00;;;;;;4840175;29;20032;-72
2024/02/05 02:09:19;;;;;;;10.65;5.60;;;282.40;2227.20;;;;;;4839710;29;20038;-72
2024/02/05 02:11:45;;;;;;;8.65;5.50;;;282.40;2201.60;;;;;;4839807;29;20504;-72
2024/02/05 02:14:11;;;;;;;7.75;5.13;;;282.40;2201.60;;;;;;4839700;29;20489;-72
2024/02/05 02:16:38;;;;;;;8.20;5.43;;;282.50;2176.00;;;;;;4839981;29;20063;-72
2024/02/05 02:19:32;;;;;;;8.68;5.30;;;307.20;2176.00;;;;;;4839123;29;20116;-72
2024/02/05 02:22:04;;;;;;;9.82;5.65;;;307.20;2201.60;;;;;;4839405;29;20030;-73
2024/02/05 02:24:33;;;;;;;9.18;4.47;;;282.50;2176.00;;;;;;4828044;29;20481;-74
2024/02/05 02:26:59;;;;;;;8.45;4.55;;;282.50;2176.00;;;;;;4840061;29;20045;-72
2024/02/05 02:29:25;;;;;;;8.63;5.07;;;282.20;2176.00;;;;;;4839446;29;20026;-72
2024/02/05 02:31:55;;;;;;;8.63;5.13;;;282.20;2201.60;;;;;;4839310;29;20482;-72
2024/02/05 02:34:29;;;;;;;10.95;5.38;;;282.20;2176.00;;;;;;4839480;29;20389;-71
2024/02/05 02:37:03;;;;;;;8.45;5.78;;;282.10;2150.40;;;;;;4839376;29;20094;-72
2024/02/05 02:39:33;;;;;;;6.72;4.28;;;282.20;2150.40;;;;;;4839486;29;20496;-72
2024/02/05 02:42:01;;;;;;;8.27;5.25;;;282.20;2150.40;;;;;;4839331;29;20454;-72
2024/02/05 02:44:30;;;;;;;78.50;37.28;;;282.30;2124.80;;;;;;4849482;29;20145;-73
2024/02/05 02:46:57;;;;;;;85.93;49.55;;;282.20;2150.40;;;;;;4841216;29;20022;-72
2024/02/05 02:49:23;;;;;;;91.53;60.30;;;256.80;2252.80;;;;;;4838183;29;20473;-71
2024/02/05 02:51:49;;;;;;;97.03;62.35;;;256.00;2252.80;;;;;;4839030;29;20036;-72
2024/02/05 02:54:15;;;;;;;94.05;64.78;;;230.90;2252.80;;;;;;4838866;29;20509;-72
2024/02/05 02:56:41;;;;;;;92.55;63.05;;;230.60;2252.80;;;;;;4839400;29;20395;-72
2024/02/05 02:59:09;;;;;;;93.03;61.63;;;230.80;2252.80;;;;;;4848039;29;20356;-71
2024/02/05 03:01:35;;;;;;;88.15;58.85;;;230.80;2252.80;;;;;;4839732;29;20058;-71
2024/02/05 03:04:01;;;;;;;55.55;36.00;;;230.70;2252.80;;;;;;4838843;29;20102;-72
2024/02/05 03:06:27;;;;;;;49.55;33.47;;;230.90;2252.80;;;;;;4843658;29;20380;-72
2024/02/05 03:08:53;;;;;;;44.72;27.40;;;231.00;2252.80;;;;;;4845924;29;20037;-71
2024/02/05 03:11:19;;;;;;;79.20;60.35;;;231.20;2252.80;;;;;;4838718;29;20457;-71
2024/02/05 03:13:44;;;;;;;63.60;43.63;;;231.30;2252.80;;;;;;4838622;29;20090;-71
2024/02/05 03:16:10;;;;;;;36.33;24.00;;;231.30;2252.80;;;;;;4838907;29;20422;-72
2024/02/05 03:18:36;;;;;;;55.83;34.85;;;256.10;2252.80;;;;;;4838775;29;20113;-71
2024/02/05 03:21:02;;;;;;;56.90;39.78;;;256.00;2252.80;;;;;;4838477;29;20030;-72
2024/02/05 03:23:28;;;;;;;28.83;20.58;;;231.30;2252.80;;;;;;4838248;29;20045;-72
2024/02/05 03:25:54;;;;;;;36.80;23.90;;;231.20;2252.80;;;;;;4838606;29;20477;-71
2024/02/05 03:28:20;;;;;;;31.33;22.23;;;231.10;2252.80;;;;;;4838919;29;20386;-72
2024/02/05 03:30:46;;;;;;;23.38;16.73;;;231.10;2252.80;;;;;;4838662;29;20026;-71
2024/02/05 03:33:14;;;;;;;23.75;17.63;;;231.00;2252.80;;;;;;4838484;29;20041;-72
2024/02/05 03:35:39;;;;;;;19.05;14.02;;;231.00;2252.80;;;;;;4838400;29;20028;-71
2024/02/05 03:38:05;;;;;;;18.02;11.48;;;231.00;2252.80;;;;;;4838369;29;20034;-72
2024/02/05 03:40:31;;;;;;;24.17;18.38;;;231.00;2252.80;;;;;;4838215;29;20022;-72
2024/02/05 03:42:57;;;;;;;12.65;9.60;;;231.00;2252.80;;;;;;4838353;29;20186;-72
2024/02/05 03:45:22;;;;;;;11.23;8.40;;;230.90;2252.80;;;;;;4838227;29;20022;-72
2024/02/05 03:47:48;;;;;;;13.98;10.48;;;230.90;2252.80;;;;;;4838726;29;20034;-72
2024/02/05 03:50:14;;;;;;;13.68;10.52;;;230.90;2252.80;;;;;;4838017;29;20422;-72
2024/02/05 03:52:43;;;;;;;20.20;12.88;;;230.90;2252.80;;;;;;4837918;29;20129;-72
2024/02/05 03:55:10;;;;;;;18.00;14.93;;;231.00;2252.80;;;;;;4838408;29;20396;-72
2024/02/05 03:57:40;;;;;;;20.02;12.10;;;230.90;2252.80;;;;;;4838388;29;20421;-76
2024/02/05 04:00:09;;;;;;;19.48;13.63;;;230.90;2252.80;;;;;;4838220;29;20025;-71
2024/02/05 04:02:35;;;;;;;7.25;4.15;;;230.90;2252.80;;;;;;4825297;29;20042;-72
2024/02/05 04:05:02;;;;;;;50.75;28.05;;;230.90;2252.80;;;;;;4845709;29;20025;-72
2024/02/05 04:07:28;;;;;;;18.50;10.10;;;230.90;2252.80;;;;;;4860245;29;20473;-72
2024/02/05 04:09:54;;;;;;;30.80;19.95;;;230.70;2252.80;;;;;;4842040;29;20113;-72
2024/02/05 04:12:20;;;;;;;42.78;25.45;;;230.70;2252.80;;;;;;4841716;29;20480;-73
2024/02/05 04:14:46;;;;;;;38.20;23.02;;;230.80;2252.80;;;;;;4842058;29;20045;-71
2024/02/05 04:17:11;;;;;;;33.88;23.40;;;230.70;2252.80;;;;;;4841846;29;20500;-73
2024/02/05 04:19:43;;;;;;;32.13;19.83;;;230.60;2252.80;;;;;;4841721;29;20041;-71
2024/02/05 04:22:12;;;;;;;63.03;51.22;;;230.60;2252.80;;;;;;4841427;29;20034;-72
2024/02/05 04:24:38;;;;;;;29.52;20.25;;;230.60;2252.80;;;;;;4841658;29;20068;-72
2024/02/05 04:27:05;;;;;;;47.75;19.58;;;230.60;2252.80;;;;;;4841450;29;20018;-72
2024/02/05 04:29:31;;;;;;;13.20;10.27;;;230.50;2252.80;;;;;;4841370;29;20117;-72
2024/02/05 04:31:57;;;;;;;15.65;9.20;;;230.50;2252.80;;;;;;4841518;29;20121;-72
2024/02/05 04:34:23;;;;;;;19.38;11.32;;;230.60;2252.80;;;;;;4841078;29;20044;-72
2024/02/05 04:36:49;;;;;;;16.13;11.60;;;230.50;2252.80;;;;;;4841629;29;20030;-71
2024/02/05 04:39:17;;;;;;;17.35;12.13;;;230.50;2252.80;;;;;;4841260;29;20105;-71
2024/02/05 04:41:43;;;;;;;13.52;10.32;;;230.50;2252.80;;;;;;4841210;29;20117;-72
2024/02/05 04:44:09;;;;;;;12.73;9.48;;;230.50;2252.80;;;;;;4841400;29;20042;-71
2024/02/05 04:46:35;;;;;;;17.00;10.27;;;230.50;2252.80;;;;;;4841269;29;20050;-71
2024/02/05 04:49:01;;;;;;;11.23;7.47;;;230.50;2252.80;;;;;;4841307;29;20038;-71
2024/02/05 04:51:27;;;;;;;10.63;7.68;;;230.50;2252.80;;;;;;4841238;29;20509;-72
2024/02/05 04:53:54;;;;;;;15.93;9.40;;;230.50;2252.80;;;;;;4840905;29;20058;-76
2024/02/05 04:56:19;;;;;;;14.02;6.70;;;230.40;2252.80;;;;;;4841569;29;20044;-72
2024/02/05 04:58:45;;;;;;;11.57;6.28;;;230.40;2252.80;;;;;;4841497;29;20398;-71
2024/02/05 05:01:11;;;;;;;14.05;7.97;;;230.40;2252.80;;;;;;4840952;29;20532;-71
2024/02/05 05:03:37;;;;;;;12.70;7.00;;;230.40;2252.80;;;;;;4849058;29;20065;-72
2024/02/05 05:06:03;;;;;;;9.13;5.72;;;230.40;2252.80;;;;;;4844217;29;20022;-72
2024/02/05 05:08:29;;;;;;;12.55;6.43;;;230.50;2252.80;;;;;;4841090;29;20022;-71
2024/02/05 05:10:55;;;;;;;8.40;5.15;;;230.50;2252.80;;;;;;4840833;29;20025;-72
2024/02/05 05:13:20;;;;;;;10.55;5.60;;;230.50;2252.80;;;;;;4839943;29;20034;-73
2024/02/05 05:15:46;;;;;;;9.38;5.30;;;230.50;2252.80;;;;;;4840963;29;20025;-72
2024/02/05 05:18:12;;;;;;;11.55;8.82;;;230.40;2252.80;;;;;;4849684;29;20112;-71
2024/02/05 05:20:39;;;;;;;20.05;12.10;;;230.40;2252.80;;;;;;4827443;29;20041;-71
2024/02/05 05:23:04;;;;;;;10.45;6.80;;;230.40;2252.80;;;;;;4840312;29;20041;-72
2024/02/05 05:25:30;;;;;;;18.85;12.35;;;230.40;2252.80;;;;;;4840438;29;20473;-72
2024/02/05 05:27:56;;;;;;;25.00;16.52;;;230.50;2252.80;;;;;;4840776;29;20061;-72
2024/02/05 05:30:21;;;;;;;33.00;23.52;;;230.40;2252.80;;;;;;4823660;29;20034;-72
2024/02/05 05:32:47;;;;;;;19.30;13.30;;;230.40;2252.80;;;;;;4840431;29;20060;-72
2024/02/05 05:35:13;;;;;;;26.27;15.80;;;230.50;2252.80;;;;;;4839847;29;20082;-72
2024/02/05 05:37:40;;;;;;;21.08;13.25;;;230.40;2252.80;;;;;;4840211;29;20034;-72
2024/02/05 05:40:08;;;;;;;22.45;14.55;;;205.70;2252.80;;;;;;4840241;29;20065;-72
2024/02/05 05:42:33;;;;;;;18.92;11.90;;;230.40;2252.80;;;;;;4839898;29;20481;-72
2024/02/05 05:45:00;;;;;;;20.63;13.20;;;230.40;2252.80;;;;;;4840294;29;20036;-72
2024/02/05 05:47:26;;;;;;;32.15;21.25;;;230.40;2252.80;;;;;;4840038;29;20038;-72
2024/02/05 05:49:51;;;;;;;43.58;29.40;;;230.50;2252.80;;;;;;4839879;29;20022;-72
2024/02/05 05:52:17;;;;;;;39.85;24.40;;;230.50;2252.80;;;;;;4840147;29;20030;-72
2024/02/05 05:54:43;;;;;;;27.45;17.67;;;230.50;2252.80;;;;;;4839370;29;20136;-71
2024/02/05 05:57:09;;;;;;;33.50;21.08;;;230.50;2252.80;;;;;;4840181;29;20045;-72
2024/02/05 05:59:38;;;;;;;20.23;17.15;;;230.60;2252.80;;;;;;4839851;29;20552;-72
2024/02/05 06:02:04;;;;;;;20.00;13.93;;;230.50;2252.80;;;;;;4839813;29;20137;-71
2024/02/05 06:04:30;;;;;;;28.80;21.13;;;230.50;2252.80;;;;;;4839737;29;20520;-73
2024/02/05 06:06:55;;;;;;;29.75;21.25;;;230.50;2252.80;;;;;;4840150;29;20022;-71
2024/02/05 06:09:21;;;;;;;20.10;14.13;;;230.50;2252.80;;;;;;4839660;29;20030;-71
2024/02/05 06:11:48;;;;;;;19.60;14.73;;;230.50;2252.80;;;;;;4840013;29;20059;-71
2024/02/05 06:14:13;;;;;;;22.02;15.65;;;230.50;2252.80;;;;;;4832907;29;20052;-70
2024/02/05 06:16:39;;;;;;;30.25;19.20;;;230.50;2252.80;;;;;;4830288;29;20369;-70
2024/02/05 06:19:05;;;;;;;21.27;14.02;;;230.50;2252.80;;;;;;4839515;29;20025;-71
2024/02/05 06:21:31;;;;;;;22.52;16.67;;;230.50;2252.80;;;;;;4839448;29;20041;-70
2024/02/05 06:23:57;;;;;;;31.05;19.25;;;230.50;2252.80;;;;;;4839294;29;20053;-70
2024/02/05 06:26:22;;;;;;;38.30;23.00;;;230.60;2252.80;;;;;;4839565;29;20014;-73
2024/02/05 06:28:48;;;;;;;20.90;12.98;;;230.60;2252.80;;;;;;4839628;29;20033;-70
2024/02/05 06:31:14;;;;;;;26.38;16.38;;;230.60;2252.80;;;;;;4839368;29;20029;-71
2024/02/05 06:33:40;;;;;;;20.58;12.52;;;230.60;2252.80;;;;;;4830063;29;20473;-71
2024/02/05 06:36:08;;;;;;;20.85;12.63;;;230.60;2252.80;;;;;;4839412;29;20028;-82
2024/02/05 06:38:34;;;;;;;27.90;19.73;;;230.40;2252.80;;;;;;4839086;29;20037;-70
2024/02/05 06:41:00;;;;;;;240.50;151.85;;;230.50;2252.80;;;;;;4839219;29;20025;-70
2024/02/05 06:43:26;;;;;;;76.30;50.75;;;230.60;2252.80;;;;;;4839354;29;20038;-74
2024/02/05 06:45:51;;;;;;;39.13;27.60;;;230.70;2252.80;;;;;;4838715;29;20034;-70
2024/02/05 06:48:17;;;;;;;39.60;26.63;;;230.60;2252.80;;;;;;4839140;29;20025;-71
2024/02/05 06:50:43;;;;;;;37.13;25.02;;;230.70;2252.80;;;;;;4838906;29;20465;-70
2024/02/05 06:53:08;;;;;;;19.70;14.00;;;230.70;2252.80;;;;;;4838769;29;20057;-70
2024/02/05 06:55:34;;;;;;;24.08;18.98;;;230.80;2252.80;;;;;;4838861;29;20034;-71
2024/02/05 06:58:00;;;;;;;18.65;10.75;;;230.70;2252.80;;;;;;4833902;29;20461;-72
2024/02/05 07:00:26;;;;;;;20.73;12.82;;;230.70;2252.80;;;;;;4831830;29;20664;-70
2024/02/05 07:02:51;;;;;;;21.90;13.18;;;230.90;2252.80;;;;;;4839348;29;20045;-71
2024/02/05 07:05:18;;;;;;;50.65;21.98;;;230.90;2252.80;;;;;;4850437;29;20029;-71
2024/02/05 07:07:44;;;;;;;26.92;15.95;;;230.90;2252.80;;;;;;4838592;29;20080;-70
2024/02/05 07:10:10;;;;;;;37.88;28.65;;;230.80;2252.80;;;;;;4828820;29;20815;-71
2024/02/05 07:12:36;;;;;;;76.60;49.70;;;230.70;2252.80;;;;;;4827621;29;20026;-81
2024/02/05 07:15:01;;;;;;;308.30;200.55;;;230.90;2252.80;;;;;;4831751;29;20018;-70
2024/02/05 07:17:34;;;;;;;270.27;187.07;;;231.10;2252.80;;;;;;4827237;29;20474;-71
2024/02/05 07:20:01;;;;;;;168.88;122.50;;;256.00;2252.80;;;;;;4838705;29;20034;-71
2024/02/05 07:22:31;;;;;;;60.08;43.03;;;256.10;2252.80;;;;;;4838603;29;20382;-71
2024/02/05 07:24:57;;;;;;;83.40;63.67;;;256.30;2252.80;;;;;;4838421;29;20485;-71
2024/02/05 07:27:25;;;;;;;29.88;18.08;;;256.40;2252.80;;;;;;4838024;29;20060;-70
2024/02/05 07:29:51;;;;;;;37.17;25.17;;;256.50;2252.80;;;;;;4838995;29;20022;-71
2024/02/05 07:32:18;;;;;;;59.83;44.63;;;256.90;2252.80;;;;;;4838345;29;20492;-71
2024/02/05 07:34:45;;;;;;;33.00;25.98;;;256.80;2252.80;;;;;;4838346;29;20117;-70
2024/02/05 07:37:11;;;;;;;32.10;20.48;;;256.90;2252.80;;;;;;4837126;29;20022;-71
2024/02/05 07:39:37;;;;;;;40.30;27.33;;;281.70;2278.40;;;;;;4838309;29;20542;-71
2024/02/05 07:42:03;;;;;;;69.90;56.25;;;281.60;2278.40;;;;;;4838327;29;20492;-70
2024/02/05 07:44:29;;;;;;;20.77;15.77;;;281.70;2278.40;;;;;;4838460;29;20038;-71
2024/02/05 07:46:55;;;;;;;20.85;13.73;;;281.70;2278.40;;;;;;4838524;29;20026;-71
2024/02/05 07:49:22;;;;;;;24.20;14.43;;;256.90;2252.80;;;;;;4838186;29;20033;-70
2024/02/05 07:51:49;;;;;;;19.50;13.30;;;256.90;2252.80;;;;;;4838173;29;20497;-70
2024/02/05 07:54:17;;;;;;;19.85;12.23;;;256.90;2252.80;;;;;;4827919;29;20137;-70
2024/02/05 07:56:43;;;;;;;19.35;13.50;;;281.70;2278.40;;;;;;4835325;29;20038;-74
2024/02/05 07:59:10;;;;;;;26.80;19.23;;;282.00;2278.40;;;;;;4838377;29;20059;-71
2024/02/05 08:01:36;;;;;;;23.63;17.65;;;282.40;2278.40;;;;;;4826167;29;20034;-81
2024/02/05 08:04:03;;;;;;;42.88;25.92;;;307.20;2304.00;;;;;;4837994;29;20059;-71
2024/02/05 08:06:29;;;;;;;61.67;39.55;;;307.60;2304.00;;;;;;4838270;29;20026;-70
2024/02/05 08:08:59;;;;;;;59.88;45.85;;;307.70;2304.00;;;;;;4838212;29;20022;-71
2024/02/05 08:11:25;;;;;;;33.53;22.30;;;308.10;2252.80;;;;;;4831420;29;20027;-71
2024/02/05 08:13:52;;;;;;;25.10;17.88;;;332.90;2278.40;;;;;;4832535;29;20026;-70
2024/02/05 08:16:17;;;;;;;22.38;14.75;;;333.10;2278.40;;;;;;4838153;29;20078;-71
2024/02/05 08:18:43;;;;;;;24.98;15.15;;;333.20;2227.20;;;;;;4837922;29;20026;-71
2024/02/05 08:21:09;;;;;;;26.30;14.68;;;333.40;2201.60;;;;;;4827035;29;20093;-75
2024/02/05 08:23:36;;;;;;;20.25;13.05;;;358.40;2176.00;;;;;;4830964;29;20042;-70
2024/02/05 08:26:01;;;;;;;19.35;13.95;;;358.70;2124.80;;;;;;4837724;29;20442;-70
2024/02/05 08:28:28;;;;;;;30.88;24.08;;;358.80;2099.20;;;;;;4838074;29;20112;-71
2024/02/05 08:30:55;;;;;;;37.65;29.70;;;358.90;2073.60;;;;;;4837956;29;20030;-71
2024/02/05 08:33:20;;;;;;;25.23;18.38;;;359.10;2073.60;;;;;;4837873;29;20370;-72
2024/02/05 08:35:46;;;;;;;17.02;12.55;;;359.30;2048.00;;;;;;4837755;29;20174;-71
2024/02/05 08:38:12;;;;;;;20.50;13.60;;;384.00;2022.40;;;;;;4837924;29;20108;-70
2024/02/05 08:40:38;;;;;;;19.20;12.27;;;384.20;2022.40;;;;;;4837812;29;20026;-83
2024/02/05 08:43:04;;;;;;;14.73;10.88;;;384.30;1971.20;;;;;;4833166;29;20488;-70
2024/02/05 08:45:30;;;;;;;19.73;15.07;;;384.50;1945.60;;;;;;4838005;29;20727;-71
2024/02/05 08:47:56;;;;;;;23.60;17.48;;;384.70;1945.60;;;;;;4838929;29;20078;-71
2024/02/05 08:50:31;;;;;;;56.90;46.65;;;409.60;1971.20;;;;;;4841276;29;20034;-71
2024/02/05 08:52:57;;;;;;;22.00;18.23;;;409.80;1945.60;;;;;;4840716;29;20053;-71
2024/02/05 08:55:22;;;;;;;66.95;49.13;;;410.20;1920.00;;;;;;4840944;29;20030;-71
2024/02/05 08:57:50;;;;;;;267.00;177.57;;;410.50;1894.40;;;;;;4840938;29;20030;-70
2024/02/05 09:00:17;;;;;;;150.68;98.65;;;410.50;1868.80;;;;;;4841167;29;20033;-70
2024/02/05 09:02:44;;;;;;;66.07;43.53;;;435.20;1868.80;;;;;;4840763;29;20362;-71
2024/02/05 09:05:10;;;;;;;26.48;19.35;;;435.30;1843.20;;;;;;4840910;29;20034;-71
2024/02/05 09:07:36;;;;;;;57.80;51.47;;;435.70;1817.60;;;;;;4841004;29;20079;-71
2024/02/05 09:10:02;;;;;;;54.65;39.75;;;435.80;1792.00;;;;;;4840949;29;20026;-71
2024/02/05 09:12:28;;;;;;;38.20;29.38;;;460.90;1792.00;;;;;;4840995;29;20022;-71
2024/02/05 09:14:54;;;;;;;50.50;36.45;;;461.30;1740.80;;;;;;4840778;29;20364;-72
2024/02/05 09:17:20;;;;;;;37.97;28.98;;;486.40;1715.20;;;;;;4840701;29;20022;-70
2024/02/05 09:19:46;;;;;;;56.63;43.88;;;486.70;1664.00;;;;;;4840600;29;20038;-71
2024/02/05 09:22:12;;;;;;;58.40;46.05;;;487.00;1638.40;;;;;;4840456;29;20026;-71
2024/02/05 09:24:38;;;;;;;26.25;19.38;;;486.90;1664.00;;;;;;4840529;29;20037;-70
2024/02/05 09:27:05;;;;;;;25.40;20.20;;;487.20;1612.80;;;;;;4840176;29;20029;-70
2024/02/05 09:29:31;;;;;;;33.38;28.40;;;487.20;1612.80;;;;;;4839574;29;20125;-71
2024/02/05 09:31:58;;;;;;;66.55;59.15;;;;;;;;;;4843322;29;20038;-70
2024/02/05 09:34:24;;;;;;;74.25;65.93;;;487.30;1638.40;;;;;;4840605;29;20440;-70
2024/02/05 09:36:50;;;;;;;47.78;38.58;;;512.50;1612.80;;;;;;4840397;29;20045;-71
2024/02/05 09:39:17;;;;;;;52.10;42.60;;;512.70;1587.20;;;;;;4840383;29;20030;-71
2024/02/05 09:41:44;;;;;;;85.15;71.18;;;512.50;1612.80;;;;;;4840209;29;20049;-72
2024/02/05 09:44:11;;;;;;;76.00;59.75;;;487.30;1638.40;;;;;;4840045;29;20038;-72
2024/02/05 09:46:38;;;;;;;69.95;54.45;;;487.00;1664.00;;;;;;4840324;29;20413;-71
2024/02/05 09:49:05;;;;;;;76.55;60.53;;;512.20;1664.00;;;;;;4840005;29;20034;-72
2024/02/05 09:51:36;;;;;;;74.90;57.78;;;512.10;1612.80;;;;;;4828110;29;20124;-71
2024/02/05 09:54:03;;;;;;;55.63;42.65;;;487.20;1664.00;;;;;;4839779;29;20062;-71
2024/02/05 09:56:35;;;;;;;84.28;68.28;;;487.10;1664.00;;;;;;4840467;29;20028;-70
2024/02/05 09:59:01;;;;;;;64.10;48.10;;;487.10;1638.40;;;;;;4839582;29;20433;-72
2024/02/05 10:01:27;;;;;;;23.38;16.13;;;487.30;1612.80;;;;;;4840175;29;20033;-71
2024/02/05 10:03:57;;;;;;;22.85;16.98;;;512.10;1510.40;;;;;;4839518;29;20042;-71
2024/02/05 10:06:29;;;;;;;19.33;14.57;;;512.10;1484.80;;;;;;4839986;29;20061;-71
2024/02/05 10:09:01;;;;;;;9.20;6.97;;;512.10;1459.20;;;;;;4839478;29;20041;-71
2024/02/05 10:11:29;;;;;;;16.50;9.63;;;512.30;1408.00;;;;;;4840086;29;20393;-71
2024/02/05 10:13:55;;;;;;;8.38;4.45;;;512.30;1408.00;;;;;;4839665;29;20262;-71
2024/02/05 10:16:22;;;;;;;20.25;14.85;;;512.40;1408.00;;;;;;4839637;29;20018;-71
2024/02/05 10:18:49;;;;;;;15.15;9.98;;;512.50;1382.40;;;;;;4839467;29;20473;-71
2024/02/05 10:21:16;;;;;;;6.18;4.20;;;512.60;1408.00;;;;;;4839666;29;20036;-70
2024/02/05 10:23:50;;;;;;;7.57;4.78;;;512.70;1356.80;;;;;;4839267;29;20052;-70
2024/02/05 10:26:15;;;;;;;;;;;512.80;1356.80;;;;;;4840113;29;20037;-71
2024/02/05 10:28:41;;;;;;;26.73;15.82;;;537.60;1356.80;;;;;;4839091;29;19908;-72
2024/02/05 10:31:08;;;;;;;5.90;4.63;;;537.80;1356.80;;;;;;4839971;29;20446;-71
2024/02/05 10:33:35;;;;;;;11.45;9.18;;;537.90;1356.80;;;;;;4839158;29;20058;-71
2024/02/05 10:36:01;;;;;;;5.95;4.32;;;538.00;1356.80;;;;;;4839528;29;20065;-72
2024/02/05 10:38:27;;;;;;;7.90;3.83;;;538.10;1356.80;;;;;;4839369;29;20506;-71
2024/02/05 10:40:53;;;;;;;8.80;4.10;;;538.10;1331.20;;;;;;4839385;29;20034;-78
2024/02/05 10:43:19;;;;;;;18.27;12.25;;;538.10;1331.20;;;;;;4839125;29;20034;-72
2024/02/05 10:45:44;;;;;;;42.65;30.20;;;538.20;1331.20;;;;;;4839165;29;20491;-79
2024/02/05 10:48:10;;;;;;;9.20;6.97;;;538.10;1331.20;;;;;;4839230;29;20505;-71
2024/02/05 10:50:36;;;;;;;6.70;4.05;;;538.20;1305.60;;;;;;4839264;29;20105;-71
2024/02/05 10:53:02;;;;;;;11.40;9.18;;;538.10;1305.60;;;;;;4838717;29;20405;-71
2024/02/05 10:55:29;;;;;;;5.88;3.60;;;538.20;1280.00;;;;;;4838997;29;20044;-71
2024/02/05 10:57:56;;;;;;;5.57;3.55;;;538.20;1305.60;;;;;;4838756;29;20041;-71
2024/02/05 11:00:22;;;;;;;7.63;5.65;;;538.20;1305.60;;;;;;4838952;29;20014;-71
2024/02/05 11:02:48;;;;;;;7.05;5.22;;;538.40;1280.00;;;;;;4838717;29;20062;-71
2024/02/05 11:05:15;;;;;;;9.52;6.13;;;538.40;1305.60;;;;;;4838735;29;20030;-71
2024/02/05 11:07:52;;;;;;;5.65;4.85;;;538.30;1305.60;;;;;;4838462;29;20026;-71
2024/02/05 11:10:23;;;;;;;9.07;6.20;;;538.30;1305.60;;;;;;4838259;29;20026;-72
2024/02/05 11:12:58;;;;;;;7.65;4.28;;;538.20;1305.60;;;;;;4838602;29;20055;-71
2024/02/05 11:15:26;;;;;;;6.80;4.65;;;538.20;1305.60;;;;;;4838589;29;20026;-71
2024/02/05 11:17:53;;;;;;;5.03;3.45;;;538.30;1305.60;;;;;;4838341;29;20082;-71
2024/02/05 11:20:20;;;;;;;11.00;5.00;;;538.40;1305.60;;;;;;4838411;29;20058;-71
2024/02/05 11:22:50;;;;;;;4.85;3.97;;;538.40;1305.60;;;;;;4838659;29;20230;-71
2024/02/05 11:25:17;;;;;;;9.25;5.22;;;538.40;1280.00;;;;;;4838636;29;20026;-72
2024/02/05 11:27:43;;;;;;;5.05;3.25;;;538.40;1280.00;;;;;;4831591;29;20037;-72
2024/02/05 11:30:09;;;;;;;6.60;3.70;;;538.40;1280.00;;;;;;4844443;29;20033;-71
2024/02/05 11:32:35;;;;;;;4.53;3.17;;;538.40;1305.60;;;;;;4838658;29;20038;-71
2024/02/05 11:35:02;;;;;;;6.15;3.45;;;538.40;1305.60;;;;;;4838621;29;20030;-72
2024/02/05 11:37:28;;;;;;;5.53;4.03;;;538.40;1280.00;;;;;;4838800;29;20030;-71
2024/02/05 11:39:59;;;;;;;10.35;8.88;;;538.40;1305.60;;;;;;4838527;29;20777;-74
2024/02/05 11:42:27;;;;;;;8.60;3.97;;;538.40;1305.60;;;;;;4838189;29;20040;-71
2024/02/05 11:44:54;;;;;;;5.82;3.63;;;538.40;1305.60;;;;;;4838314;29;20026;-71
2024/02/05 11:47:23;;;;;;;5.38;4.35;;;538.40;1280.00;;;;;;4846314;29;20026;-72
2024/02/05 11:49:52;;;;;;;7.85;5.43;;;538.40;1305.60;;;;;;4841610;29;20469;-71
2024/02/05 11:52:18;;;;;;;7.55;5.28;;;;;;;;;;4838223;29;20338;-72
2024/02/05 11:54:45;;;;;;;14.48;11.40;;;;;;;;;;4841172;29;20136;-70
2024/02/05 11:57:11;;;;;;;9.23;5.38;;;;;;;;;;4847717;29;20086;-72
2024/02/05 11:59:37;;;;;;;6.25;4.45;;;;;;;;;;4838305;29;20144;-72
2024/02/05 12:02:05;;;;;;;9.80;4.88;;;;;;;;;;4838355;29;20034;-81